createdAt,value
2018-05-19T00:00:51.427Z,10.30
2018-05-19T00:03:19.057Z,10.17
2018-05-19T00:05:46.509Z,10.80
2018-05-19T00:08:14.790Z,10.80
2018-05-19T00:10:43.092Z,9.53
2018-05-19T00:13:10.597Z,9.20
2018-05-19T00:15:38.120Z,9.60
2018-05-19T00:18:05.625Z,9.10
2018-05-19T00:20:33.143Z,8.83
2018-05-19T00:23:00.654Z,9.47
2018-05-19T00:25:28.932Z,8.83
2018-05-19T00:27:57.213Z,8.67
2018-05-19T00:30:25.513Z,10.93
2018-05-19T00:32:53.019Z,10.20
2018-05-19T00:35:20.602Z,10.37
2018-05-19T00:37:48.897Z,9.80
2018-05-19T00:40:16.415Z,8.30
2018-05-19T00:42:43.958Z,11.10
2018-05-19T00:45:11.473Z,11.20
2018-05-19T00:47:39.010Z,9.88
2018-05-19T00:50:07.290Z,10.00
2018-05-19T00:52:35.598Z,10.90
2018-05-19T00:55:04.613Z,9.98
2018-05-19T00:57:32.130Z,10.70
2018-05-19T00:59:59.671Z,9.73
2018-05-19T01:02:27.970Z,11.25
2018-05-19T01:04:55.496Z,10.80
2018-05-19T01:07:23.027Z,10.27
2018-05-19T01:09:50.552Z,9.55
2018-05-19T01:12:18.076Z,8.93
2018-05-19T01:14:45.596Z,8.17
2018-05-19T01:17:13.105Z,8.48
2018-05-19T01:19:41.405Z,8.60
2018-05-19T01:22:08.918Z,8.32
2018-05-19T01:24:36.424Z,8.07
2018-05-19T01:27:03.953Z,9.55
2018-05-19T01:29:32.248Z,9.32
2018-05-19T01:31:59.772Z,9.27
2018-05-19T01:34:27.291Z,8.98
2018-05-19T01:36:54.831Z,9.32
2018-05-19T01:39:22.353Z,10.10
2018-05-19T01:41:49.885Z,9.55
2018-05-19T01:44:18.155Z,10.68
2018-05-19T01:46:46.445Z,10.60
2018-05-19T01:49:13.984Z,9.20
2018-05-19T01:51:41.510Z,9.02
2018-05-19T01:54:09.035Z,8.77
2018-05-19T01:56:36.536Z,8.70
2018-05-19T01:59:04.070Z,9.88
2018-05-19T02:01:32.349Z,9.95
2018-05-19T02:04:00.640Z,9.98
2018-05-19T02:06:28.910Z,8.43
2018-05-19T02:08:57.184Z,8.98
2018-05-19T02:11:25.487Z,8.77
2018-05-19T02:13:53.003Z,8.20
2018-05-19T02:16:20.538Z,8.70
2018-05-19T02:18:48.045Z,10.30
2018-05-19T02:21:16.344Z,7.93
2018-05-19T02:23:43.858Z,8.45
2018-05-19T02:26:11.376Z,8.65
2018-05-19T02:28:38.916Z,7.93
2018-05-19T02:31:06.451Z,8.30
2018-05-19T02:33:34.737Z,9.55
2018-05-19T02:36:02.249Z,8.20
2018-05-19T02:38:29.768Z,10.93
2018-05-19T02:40:57.280Z,10.20
2018-05-19T02:43:24.808Z,10.40
2018-05-19T02:45:52.320Z,10.35
2018-05-19T02:48:20.614Z,10.45
2018-05-19T02:50:48.127Z,11.02
2018-05-19T02:53:15.651Z,10.45
2018-05-19T02:55:43.150Z,9.68
2018-05-19T02:58:10.662Z,10.45
2018-05-19T03:00:38.188Z,11.32
2018-05-19T03:03:06.469Z,9.98
2018-05-19T03:05:34.771Z,11.93
2018-05-19T03:08:02.281Z,11.80
2018-05-19T03:10:29.811Z,10.70
2018-05-19T03:12:57.317Z,11.12
2018-05-19T03:15:25.613Z,11.52
2018-05-19T03:17:53.117Z,10.55
2018-05-19T03:20:20.650Z,10.27
2018-05-19T03:22:48.166Z,10.40
2018-05-19T03:25:16.453Z,11.30
2018-05-19T03:27:44.739Z,10.07
2018-05-19T03:30:12.253Z,9.38
2018-05-19T03:32:39.786Z,9.77
2018-05-19T03:35:07.287Z,9.30
2018-05-19T03:37:34.819Z,8.80
2018-05-19T03:40:02.316Z,9.25
2018-05-19T03:42:30.609Z,8.90
2018-05-19T03:44:58.107Z,8.48
2018-05-19T03:47:25.617Z,8.63
2018-05-19T03:49:53.900Z,8.98
2018-05-19T03:52:21.406Z,9.93
2018-05-19T03:54:48.923Z,9.57
2018-05-19T03:57:28.082Z,8.80
2018-05-19T04:00:07.658Z,9.18
2018-05-19T04:02:35.850Z,9.55
2018-05-19T04:05:03.390Z,10.00
2018-05-19T04:07:30.900Z,9.23
2018-05-19T04:09:58.441Z,11.05
2018-05-19T04:12:25.958Z,10.27
2018-05-19T04:14:53.471Z,10.55
2018-05-19T04:17:21.017Z,10.00
2018-05-19T04:19:48.537Z,10.90
2018-05-19T04:22:16.070Z,10.63
2018-05-19T04:24:43.582Z,10.65
2018-05-19T04:27:11.880Z,9.25
2018-05-19T04:29:39.383Z,10.20
2018-05-19T04:32:06.919Z,8.73
2018-05-19T04:34:34.433Z,9.27
2018-05-19T04:37:02.709Z,9.25
2018-05-19T04:39:31.000Z,9.98
2018-05-19T04:41:58.522Z,8.60
2018-05-19T04:44:26.048Z,10.38
2018-05-19T04:46:53.551Z,10.45
2018-05-19T04:49:21.837Z,9.38
2018-05-19T04:51:50.119Z,12.80
2018-05-19T04:54:17.655Z,11.45
2018-05-19T04:56:45.948Z,12.65
2018-05-19T04:59:13.493Z,10.30
2018-05-19T05:01:41.015Z,10.80
2018-05-19T05:04:08.617Z,11.25
2018-05-19T05:06:36.078Z,12.55
2018-05-19T05:09:04.359Z,10.63
2018-05-19T05:11:32.647Z,12.45
2018-05-19T05:14:00.218Z,13.40
2018-05-19T05:16:27.712Z,14.30
2018-05-19T05:18:55.216Z,13.95
2018-05-19T05:21:23.514Z,15.48
2018-05-19T05:23:51.034Z,14.50
2018-05-19T05:26:19.322Z,14.45
2018-05-19T05:28:47.620Z,13.75
2018-05-19T05:31:15.142Z,13.55
2018-05-19T05:33:43.450Z,11.45
2018-05-19T05:36:10.972Z,12.45
2018-05-19T05:38:38.514Z,13.10
2018-05-19T05:41:06.032Z,12.35
2018-05-19T05:43:33.573Z,12.98
2018-05-19T05:46:01.098Z,12.85
2018-05-19T05:48:28.652Z,12.20
2018-05-19T05:50:56.165Z,12.00
2018-05-19T05:53:23.690Z,11.50
2018-05-19T05:55:51.221Z,12.07
2018-05-19T05:58:18.724Z,10.17
2018-05-19T06:00:47.013Z,10.17
2018-05-19T06:03:14.528Z,11.23
2018-05-19T06:05:42.049Z,8.70
2018-05-19T06:08:09.572Z,10.77
2018-05-19T06:10:37.883Z,10.70
2018-05-19T06:13:05.388Z,9.73
2018-05-19T06:15:32.913Z,10.67
2018-05-19T06:18:00.450Z,12.03
2018-05-19T06:20:27.968Z,10.50
2018-05-19T06:22:55.509Z,10.13
2018-05-19T06:25:23.040Z,9.70
2018-05-19T06:27:50.564Z,9.40
2018-05-19T06:30:18.850Z,10.43
2018-05-19T06:32:46.374Z,10.90
2018-05-19T06:35:13.886Z,10.23
2018-05-19T06:37:41.441Z,9.43
2018-05-19T06:40:08.957Z,8.63
2018-05-19T06:42:36.479Z,7.60
2018-05-19T06:45:04.011Z,9.80
2018-05-19T06:47:31.523Z,8.87
2018-05-19T06:49:59.048Z,7.43
2018-05-19T06:52:26.573Z,8.30
2018-05-19T06:54:54.114Z,7.03
2018-05-19T06:57:22.398Z,8.90
2018-05-19T06:59:50.697Z,8.30
2018-05-19T07:02:18.207Z,9.07
2018-05-19T07:04:45.714Z,7.50
2018-05-19T07:07:13.236Z,7.80
2018-05-19T07:09:40.762Z,8.53
2018-05-19T07:12:08.289Z,6.53
2018-05-19T07:14:35.809Z,8.53
2018-05-19T07:17:03.341Z,6.63
2018-05-19T07:19:30.856Z,7.10
2018-05-19T07:21:59.165Z,7.00
2018-05-19T07:24:26.664Z,6.93
2018-05-19T07:26:54.190Z,8.43
2018-05-19T07:29:21.711Z,7.60
2018-05-19T07:31:49.982Z,6.90
2018-05-19T07:34:18.290Z,8.13
2018-05-19T07:36:45.787Z,7.37
2018-05-19T07:39:13.319Z,6.43
2018-05-19T07:41:40.842Z,7.70
2018-05-19T07:44:08.359Z,8.37
2018-05-19T07:46:35.866Z,7.30
2018-05-19T07:49:03.392Z,7.17
2018-05-19T07:51:30.893Z,6.07
2018-05-19T07:53:58.401Z,6.57
2018-05-19T07:56:25.927Z,6.93
2018-05-19T07:58:53.424Z,7.20
2018-05-19T08:01:20.941Z,7.17
2018-05-19T08:03:48.443Z,6.30
2018-05-19T08:06:16.735Z,6.90
2018-05-19T08:08:45.015Z,6.63
2018-05-19T08:11:13.301Z,6.87
2018-05-19T08:13:40.804Z,6.23
2018-05-19T08:16:09.097Z,6.20
2018-05-19T08:18:36.592Z,6.10
2018-05-19T08:21:04.096Z,6.40
2018-05-19T08:23:31.631Z,7.20
2018-05-19T08:25:59.132Z,7.20
2018-05-19T08:28:26.655Z,7.53
2018-05-19T08:30:54.164Z,7.30
2018-05-19T08:33:22.452Z,6.70
2018-05-19T08:35:50.730Z,7.30
2018-05-19T08:38:19.022Z,7.20
2018-05-19T08:40:46.529Z,7.70
2018-05-19T08:43:14.030Z,6.70
2018-05-19T08:45:41.566Z,7.20
2018-05-19T08:48:09.828Z,7.20
2018-05-19T08:50:37.400Z,8.50
2018-05-19T08:53:04.877Z,7.03
2018-05-19T08:55:33.173Z,8.30
2018-05-19T08:58:00.695Z,7.10
2018-05-19T09:00:29.124Z,7.47
2018-05-19T09:02:56.638Z,9.80
2018-05-19T09:07:59.688Z,8.43
2018-05-19T09:10:27.247Z,9.50
2018-05-19T09:12:54.841Z,7.07
2018-05-19T09:15:22.306Z,8.97
2018-05-19T09:17:49.837Z,9.90
2018-05-19T09:20:17.348Z,8.80
2018-05-19T09:22:45.647Z,8.90
2018-05-19T09:25:13.160Z,7.57
2018-05-19T09:27:40.706Z,8.97
2018-05-19T09:30:08.209Z,9.20
2018-05-19T09:32:35.723Z,7.83
2018-05-19T09:35:03.251Z,7.70
2018-05-19T09:37:30.761Z,6.57
2018-05-19T09:39:59.049Z,8.13
2018-05-19T09:42:27.330Z,6.10
2018-05-19T09:44:55.611Z,7.90
2018-05-19T09:47:23.140Z,7.20
2018-05-19T09:49:50.656Z,6.97
2018-05-19T09:52:18.210Z,5.50
2018-05-19T09:54:45.726Z,6.13
2018-05-19T09:57:14.007Z,7.00
2018-05-19T09:59:42.276Z,7.40
2018-05-19T10:02:10.568Z,6.00
2018-05-19T10:04:38.839Z,6.90
2018-05-19T10:07:07.137Z,6.13
2018-05-19T10:09:34.660Z,6.47
2018-05-19T10:12:02.184Z,6.30
2018-05-19T10:14:29.692Z,6.83
2018-05-19T10:16:57.988Z,7.37
2018-05-19T10:19:25.497Z,7.50
2018-05-19T10:21:53.020Z,7.87
2018-05-19T10:24:20.553Z,6.17
2018-05-19T10:26:48.843Z,6.63
2018-05-19T10:29:16.382Z,7.73
2018-05-19T10:31:44.657Z,7.83
2018-05-19T10:34:13.826Z,6.13
2018-05-19T10:36:41.343Z,6.03
2018-05-19T10:39:08.877Z,7.13
2018-05-19T10:41:37.162Z,7.00
2018-05-19T10:44:04.689Z,5.90
2018-05-19T10:46:32.188Z,5.67
2018-05-19T10:48:59.706Z,5.33
2018-05-19T10:51:27.242Z,6.07
2018-05-19T10:53:54.740Z,6.57
2018-05-19T10:56:23.027Z,5.00
2018-05-19T10:58:50.533Z,5.23
2018-05-19T11:01:18.051Z,4.10
2018-05-19T11:03:45.552Z,4.50
2018-05-19T11:06:13.102Z,5.90
2018-05-19T11:08:40.607Z,6.50
2018-05-19T11:11:08.888Z,5.37
2018-05-19T11:13:37.184Z,6.83
2018-05-19T11:16:04.711Z,5.67
2018-05-19T11:18:33.038Z,5.63
2018-05-19T11:21:00.529Z,5.03
2018-05-19T11:23:28.049Z,5.50
2018-05-19T11:25:55.572Z,5.17
2018-05-19T11:28:23.855Z,5.10
2018-05-19T11:30:52.123Z,5.43
2018-05-19T11:33:20.420Z,5.60
2018-05-19T11:35:47.950Z,5.00
2018-05-19T11:38:16.224Z,5.67
2018-05-19T11:40:44.514Z,5.33
2018-05-19T11:43:12.797Z,5.73
2018-05-19T11:45:41.092Z,5.70
2018-05-19T11:48:08.605Z,5.23
2018-05-19T11:50:36.173Z,5.73
2018-05-19T11:53:03.678Z,6.20
2018-05-19T11:55:31.203Z,5.47
2018-05-19T11:57:59.493Z,5.87
2018-05-19T12:00:27.005Z,5.73
2018-05-19T12:02:54.539Z,5.53
2018-05-19T12:05:22.057Z,4.23
2018-05-19T12:07:50.332Z,4.87
2018-05-19T12:10:18.615Z,5.40
2018-05-19T12:12:46.898Z,5.50
2018-05-19T12:15:14.409Z,4.67
2018-05-19T12:17:41.951Z,6.03
2018-05-19T12:20:09.470Z,6.00
2018-05-19T12:22:36.988Z,6.27
2018-05-19T12:25:04.527Z,5.43
2018-05-19T12:27:32.044Z,4.80
2018-05-19T12:30:00.344Z,6.07
2018-05-19T12:32:27.854Z,6.10
2018-05-19T12:34:56.149Z,5.23
2018-05-19T12:37:24.424Z,5.50
2018-05-19T12:39:52.728Z,5.80
2018-05-19T12:42:20.237Z,5.60
2018-05-19T12:44:47.786Z,5.77
2018-05-19T12:47:15.284Z,4.90
2018-05-19T12:49:43.573Z,5.33
2018-05-19T12:52:11.105Z,5.70
2018-05-19T12:54:39.373Z,4.93
2018-05-19T12:57:06.894Z,5.10
2018-05-19T12:59:34.402Z,4.83
2018-05-19T13:02:01.952Z,5.40
2018-05-19T13:04:30.238Z,4.20
2018-05-19T13:06:58.520Z,5.03
2018-05-19T13:09:26.791Z,4.83
2018-05-19T13:11:55.093Z,5.40
2018-05-19T13:14:22.613Z,5.37
2018-05-19T13:16:50.135Z,5.70
2018-05-19T13:19:17.655Z,4.90
2018-05-19T13:21:45.938Z,5.57
2018-05-19T13:24:13.464Z,4.63
2018-05-19T13:26:40.998Z,6.00
2018-05-19T13:29:08.530Z,5.50
2018-05-19T13:31:36.056Z,5.10
2018-05-19T13:34:04.368Z,5.90
2018-05-19T13:36:31.875Z,4.60
2018-05-19T13:38:59.386Z,4.80
2018-05-19T13:41:26.988Z,4.93
2018-05-19T13:43:54.446Z,4.80
2018-05-19T13:46:21.989Z,5.07
2018-05-19T13:48:49.511Z,5.73
2018-05-19T13:51:17.034Z,4.60
2018-05-19T13:53:45.304Z,4.35
2018-05-19T13:56:13.732Z,4.50
2018-05-19T13:58:41.253Z,3.30
2018-05-19T14:01:09.558Z,3.70
2018-05-19T14:03:37.068Z,3.90
2018-05-19T14:06:04.580Z,3.60
2018-05-19T14:08:32.100Z,3.40
2018-05-19T14:11:00.379Z,3.07
2018-05-19T14:13:28.673Z,3.20
2018-05-19T14:15:57.004Z,2.83
2018-05-19T14:18:24.534Z,2.47
2018-05-19T14:20:52.070Z,2.23
2018-05-19T14:23:20.376Z,2.73
2018-05-19T14:25:47.890Z,2.90
2018-05-19T14:28:16.179Z,2.28
2018-05-19T14:30:44.472Z,2.22
2018-05-19T14:33:11.997Z,2.23
2018-05-19T14:35:40.297Z,2.27
2018-05-19T14:38:07.801Z,2.70
2018-05-19T14:40:35.339Z,2.37
2018-05-19T14:43:02.850Z,2.00
2018-05-19T14:45:31.137Z,2.90
2018-05-19T14:47:59.413Z,2.60
2018-05-19T14:50:27.707Z,2.70
2018-05-19T14:52:55.216Z,2.45
2018-05-19T14:55:22.715Z,2.30
2018-05-19T14:57:51.003Z,2.77
2018-05-19T15:00:18.522Z,2.20
2018-05-19T15:02:46.045Z,2.00
2018-05-19T15:05:13.555Z,1.80
2018-05-19T15:07:41.853Z,2.07
2018-05-19T15:10:09.348Z,2.10
2018-05-19T15:12:36.882Z,2.40
2018-05-19T15:15:04.397Z,1.90
2018-05-19T15:17:31.929Z,2.00
2018-05-19T15:19:59.445Z,2.60
2018-05-19T15:22:26.953Z,2.83
2018-05-19T15:24:55.975Z,2.40
2018-05-19T15:27:24.253Z,2.13
2018-05-19T15:29:52.540Z,2.97
2018-05-19T15:32:20.059Z,2.50
2018-05-19T15:34:47.579Z,2.40
2018-05-19T15:37:15.095Z,3.00
2018-05-19T15:39:43.401Z,2.43
2018-05-19T15:42:10.911Z,2.87
2018-05-19T15:44:38.426Z,2.70
2018-05-19T15:47:05.976Z,2.30
2018-05-19T15:49:33.494Z,2.77
2018-05-19T15:52:01.018Z,2.63
2018-05-19T15:54:28.527Z,2.77
2018-05-19T15:56:56.815Z,2.83
2018-05-19T15:59:25.084Z,2.90
2018-05-19T16:01:53.381Z,2.83
2018-05-19T16:04:20.884Z,2.90
2018-05-19T16:06:48.397Z,2.80
2018-05-19T16:09:15.921Z,3.67
2018-05-19T16:11:43.436Z,3.00
2018-05-19T16:14:10.972Z,3.73
2018-05-19T16:16:38.473Z,3.20
2018-05-19T16:19:06.019Z,3.57
2018-05-19T16:21:33.520Z,3.80
2018-05-19T16:24:01.044Z,3.93
2018-05-19T16:26:28.556Z,4.03
2018-05-19T16:28:56.838Z,3.90
2018-05-19T16:31:24.362Z,3.23
2018-05-19T16:33:51.879Z,4.27
2018-05-19T16:36:19.414Z,4.33
2018-05-19T16:38:46.919Z,4.40
2018-05-19T16:41:14.445Z,3.87
2018-05-19T16:43:41.969Z,3.70
2018-05-19T16:46:10.265Z,4.63
2018-05-19T16:48:37.836Z,5.77
2018-05-19T16:51:05.350Z,5.77
2018-05-19T16:53:32.880Z,5.30
2018-05-19T16:56:00.416Z,5.57
2018-05-19T16:58:27.919Z,4.73
2018-05-19T17:00:55.447Z,4.47
2018-05-19T17:03:22.970Z,5.30
2018-05-19T17:05:51.278Z,6.30
2018-05-19T17:08:18.857Z,5.73
2018-05-19T17:10:47.076Z,5.17
2018-05-19T17:13:15.377Z,4.50
2018-05-19T17:15:42.883Z,4.53
2018-05-19T17:18:10.412Z,4.50
2018-05-19T17:20:37.924Z,4.30
2018-05-19T17:23:06.214Z,4.83
2018-05-19T17:25:33.735Z,4.30
2018-05-19T17:28:01.289Z,4.20
2018-05-19T17:30:28.810Z,4.80
2018-05-19T17:32:56.329Z,4.53
2018-05-19T17:35:23.862Z,4.40
2018-05-19T17:37:52.533Z,4.60
2018-05-19T17:40:20.063Z,4.40
2018-05-19T17:42:47.582Z,5.00
2018-05-19T17:45:15.102Z,4.73
2018-05-19T17:47:42.624Z,4.30
2018-05-19T17:50:10.890Z,5.03
2018-05-19T17:52:39.185Z,4.33
2018-05-19T17:55:07.467Z,4.93
2018-05-19T17:57:34.980Z,3.97
2018-05-19T18:00:03.496Z,4.30
2018-05-19T18:02:31.020Z,4.40
2018-05-19T18:04:58.528Z,4.70
2018-05-19T18:07:26.123Z,4.60
2018-05-19T18:09:54.348Z,4.73
2018-05-19T18:12:22.628Z,4.50
2018-05-19T18:14:50.157Z,4.70
2018-05-19T18:17:17.678Z,4.40
2018-05-19T18:19:45.209Z,4.60
2018-05-19T18:22:13.578Z,5.63
2018-05-19T18:24:41.876Z,4.43
2018-05-19T18:27:09.398Z,4.53
2018-05-19T18:29:37.732Z,5.53
2018-05-19T18:32:05.236Z,4.50
2018-05-19T18:34:33.512Z,4.83
2018-05-19T18:37:01.817Z,4.87
2018-05-19T18:39:29.334Z,5.23
2018-05-19T18:41:56.865Z,4.80
2018-05-19T18:44:24.385Z,4.90
2018-05-19T18:46:51.917Z,5.73
2018-05-19T18:49:19.432Z,5.07
2018-05-19T18:51:47.033Z,4.90
2018-05-19T18:54:14.515Z,6.03
2018-05-19T18:56:42.795Z,4.90
2018-05-19T18:59:10.327Z,5.20
2018-05-19T19:01:37.843Z,5.43
2018-05-19T19:04:05.374Z,5.60
2018-05-19T19:06:33.654Z,5.97
2018-05-19T19:09:01.191Z,5.80
2018-05-19T19:11:29.466Z,6.20
2018-05-19T19:13:57.770Z,6.00
2018-05-19T19:16:25.285Z,6.07
2018-05-19T19:18:52.804Z,6.60
2018-05-19T19:21:20.340Z,7.57
2018-05-19T19:23:47.840Z,6.80
2018-05-19T19:26:15.376Z,6.70
2018-05-19T19:28:42.881Z,6.33
2018-05-19T19:31:11.188Z,5.90
2018-05-19T19:33:38.703Z,7.10
2018-05-19T19:36:06.236Z,7.40
2018-05-19T19:38:33.748Z,7.37
2018-05-19T19:41:02.039Z,6.00
2018-05-19T19:43:30.315Z,6.87
2018-05-19T19:45:58.584Z,6.80
2018-05-19T19:48:26.881Z,6.50
2018-05-19T19:50:54.396Z,6.87
2018-05-19T19:53:21.938Z,6.87
2018-05-19T19:55:49.460Z,6.57
2018-05-19T19:58:16.976Z,6.93
2018-05-19T20:00:44.497Z,6.37
2018-05-19T20:03:12.019Z,6.60
2018-05-19T20:05:40.287Z,6.43
2018-05-19T20:08:08.569Z,6.40
2018-05-19T20:10:36.856Z,7.20
2018-05-19T20:13:04.365Z,6.77
2018-05-19T20:15:31.902Z,7.80
2018-05-19T20:17:59.416Z,7.40
2018-05-19T20:20:27.775Z,7.53
2018-05-19T20:22:55.251Z,8.10
2018-05-19T20:25:23.553Z,7.00
2018-05-19T20:27:51.077Z,7.47
2018-05-19T20:30:18.584Z,8.00
2018-05-19T20:32:46.121Z,7.70
2018-05-19T20:35:13.641Z,7.60
2018-05-19T20:37:41.222Z,7.77
2018-05-19T20:40:08.709Z,7.40
2018-05-19T20:42:36.245Z,7.90
2018-05-19T20:45:03.772Z,7.23
2018-05-19T20:47:31.309Z,7.83
2018-05-19T20:49:58.815Z,7.87
2018-05-19T20:52:27.111Z,8.27
2018-05-19T20:54:54.631Z,7.40
2018-05-19T20:57:22.159Z,7.60
2018-05-19T20:59:49.695Z,7.47
2018-05-19T21:02:17.206Z,7.70
2018-05-19T21:04:44.741Z,8.63
2018-05-19T21:07:12.266Z,7.53
2018-05-19T21:09:39.809Z,8.63
2018-05-19T21:12:08.090Z,8.93
2018-05-19T21:14:35.633Z,8.20
2018-05-19T21:17:03.905Z,8.73
2018-05-19T21:19:32.188Z,8.03
2018-05-19T21:22:00.488Z,9.00
2018-05-19T21:24:28.006Z,8.67
2018-05-19T21:26:55.537Z,8.97
2018-05-19T21:29:23.054Z,8.53
2018-05-19T21:31:51.355Z,7.47
2018-05-19T21:34:18.861Z,7.83
2018-05-19T21:36:46.401Z,7.50
2018-05-19T21:39:13.908Z,6.80
2018-05-19T21:41:41.412Z,7.50
2018-05-19T21:44:08.957Z,7.40
2018-05-19T21:46:36.473Z,7.50
2018-05-19T21:49:04.778Z,7.83
2018-05-19T21:51:32.298Z,7.93
2018-05-19T21:54:00.601Z,8.33
2018-05-19T21:56:28.130Z,7.37
2018-05-19T21:58:55.665Z,8.00
2018-05-19T22:01:23.181Z,6.93
2018-05-19T22:03:50.731Z,7.63
2018-05-19T22:06:19.012Z,7.77
2018-05-19T22:08:46.573Z,7.57
2018-05-19T22:11:14.857Z,7.37
2018-05-19T22:13:42.374Z,7.60
2018-05-19T22:16:09.893Z,7.77
2018-05-19T22:18:37.405Z,7.60
2018-05-19T22:21:05.696Z,7.97
2018-05-19T22:23:33.218Z,8.63
2018-05-19T22:26:00.753Z,8.60
2018-05-19T22:28:28.275Z,8.53
2018-05-19T22:30:55.783Z,9.03
2018-05-19T22:33:23.309Z,8.97
2018-05-19T22:35:51.593Z,8.70
2018-05-19T22:38:19.129Z,9.20
2018-05-19T22:40:46.659Z,8.10
2018-05-19T22:43:14.952Z,8.57
2018-05-19T22:45:43.248Z,9.90
2018-05-19T22:48:10.789Z,8.17
2018-05-19T22:50:38.314Z,8.90
2018-05-19T22:53:05.854Z,8.57
2018-05-19T22:55:33.370Z,8.50
2018-05-19T22:58:00.900Z,9.23
2018-05-19T23:00:28.431Z,8.47
2018-05-19T23:02:55.953Z,8.47
2018-05-19T23:05:23.482Z,9.20
2018-05-19T23:07:51.015Z,9.40
2018-05-19T23:10:18.547Z,10.23
2018-05-19T23:12:46.834Z,8.50
2018-05-19T23:15:14.388Z,10.30
2018-05-19T23:17:41.895Z,9.57
2018-05-19T23:20:09.407Z,9.27
2018-05-19T23:22:43.468Z,8.70
2018-05-19T23:25:11.751Z,10.40
2018-05-19T23:27:40.050Z,10.43
2018-05-19T23:30:07.559Z,10.50
2018-05-19T23:32:35.106Z,9.90
2018-05-19T23:35:02.620Z,9.50
2018-05-19T23:37:30.157Z,9.40
2018-05-19T23:39:57.670Z,9.97
2018-05-19T23:42:25.218Z,9.27
2018-05-19T23:44:52.734Z,9.50
2018-05-19T23:47:21.022Z,10.37
2018-05-19T23:49:49.325Z,9.80
2018-05-19T23:52:16.845Z,9.80
2018-05-19T23:54:45.140Z,9.70
2018-05-19T23:57:13.433Z,10.23
2018-05-19T23:59:40.969Z,10.37
